sensor_id;sensor_type;location;lat;lon;timestamp;P1;durP1;ratioP1;P2;durP2;ratioP2
815;SDS011;25928;51.062;13.752;2022-08-21T00:00:00;48.20;;;35.80;;
815;SDS011;25928;51.062;13.752;2022-08-21T00:05:12;39.70;;;33.93;;
815;SDS011;25928;51.062;13.752;2022-08-21T00:07:38;44.80;;;34.73;;
815;SDS011;25928;51.062;13.752;2022-08-21T00:10:04;45.13;;;34.07;;
815;SDS011;25928;51.062;13.752;2022-08-21T00:12:31;47.20;;;36.00;;
815;SDS011;25928;51.062;13.752;2022-08-21T00:14:57;49.80;;;38.10;;
815;SDS011;25928;51.062;13.752;2022-08-21T00:20:42;45.27;;;36.47;;
815;SDS011;25928;51.062;13.752;2022-08-21T00:23:09;58.70;;;39.93;;
815;SDS011;25928;51.062;13.752;2022-08-21T00:25:35;50.20;;;37.43;;
815;SDS011;25928;51.062;13.752;2022-08-21T00:30:47;55.80;;;37.60;;
815;SDS011;25928;51.062;13.752;2022-08-21T00:33:13;49.40;;;36.40;;
815;SDS011;25928;51.062;13.752;2022-08-21T00:35:39;51.50;;;39.37;;
815;SDS011;25928;51.062;13.752;2022-08-21T00:38:08;52.50;;;37.03;;
815;SDS011;25928;51.062;13.752;2022-08-21T00:40:37;53.50;;;37.40;;
815;SDS011;25928;51.062;13.752;2022-08-21T00:46:36;53.37;;;39.53;;
815;SDS011;25928;51.062;13.752;2022-08-21T00:49:03;55.07;;;41.43;;
815;SDS011;25928;51.062;13.752;2022-08-21T00:51:38;52.40;;;39.13;;
815;SDS011;25928;51.062;13.752;2022-08-21T00:54:10;56.03;;;40.70;;
815;SDS011;25928;51.062;13.752;2022-08-21T00:56:37;50.77;;;38.17;;
815;SDS011;25928;51.062;13.752;2022-08-21T00:59:02;58.20;;;42.67;;
815;SDS011;25928;51.062;13.752;2022-08-21T01:01:30;50.50;;;38.97;;
815;SDS011;25928;51.062;13.752;2022-08-21T01:03:55;59.00;;;38.53;;
815;SDS011;25928;51.062;13.752;2022-08-21T01:06:21;53.97;;;39.10;;
815;SDS011;25928;51.062;13.752;2022-08-21T01:08:47;51.97;;;38.30;;
815;SDS011;25928;51.062;13.752;2022-08-21T01:11:14;52.67;;;40.60;;
815;SDS011;25928;51.062;13.752;2022-08-21T01:13:40;57.97;;;41.87;;
815;SDS011;25928;51.062;13.752;2022-08-21T01:16:12;53.23;;;41.07;;
815;SDS011;25928;51.062;13.752;2022-08-21T01:18:40;50.63;;;38.70;;
815;SDS011;25928;51.062;13.752;2022-08-21T01:21:08;44.83;;;34.67;;
815;SDS011;25928;51.062;13.752;2022-08-21T01:23:40;40.13;;;31.20;;
815;SDS011;25928;51.062;13.752;2022-08-21T01:26:08;43.13;;;34.00;;
815;SDS011;25928;51.062;13.752;2022-08-21T01:28:36;39.30;;;29.70;;
815;SDS011;25928;51.062;13.752;2022-08-21T01:31:06;32.17;;;27.47;;
815;SDS011;25928;51.062;13.752;2022-08-21T01:33:34;29.90;;;24.67;;
815;SDS011;25928;51.062;13.752;2022-08-21T01:36:00;27.30;;;22.10;;
815;SDS011;25928;51.062;13.752;2022-08-21T01:38:26;23.00;;;20.50;;
815;SDS011;25928;51.062;13.752;2022-08-21T01:40:52;26.83;;;22.60;;
815;SDS011;25928;51.062;13.752;2022-08-21T01:43:17;24.43;;;21.67;;
815;SDS011;25928;51.062;13.752;2022-08-21T01:45:43;24.60;;;20.23;;
815;SDS011;25928;51.062;13.752;2022-08-21T01:48:09;24.40;;;20.47;;
815;SDS011;25928;51.062;13.752;2022-08-21T01:50:35;21.43;;;19.20;;
815;SDS011;25928;51.062;13.752;2022-08-21T01:53:01;19.53;;;17.10;;
815;SDS011;25928;51.062;13.752;2022-08-21T01:55:26;18.70;;;16.70;;
815;SDS011;25928;51.062;13.752;2022-08-21T01:57:52;18.03;;;15.27;;
815;SDS011;25928;51.062;13.752;2022-08-21T02:00:20;19.43;;;17.63;;
815;SDS011;25928;51.062;13.752;2022-08-21T02:02:50;20.73;;;16.67;;
815;SDS011;25928;51.062;13.752;2022-08-21T02:05:16;19.43;;;17.23;;
815;SDS011;25928;51.062;13.752;2022-08-21T02:07:45;19.20;;;16.30;;
815;SDS011;25928;51.062;13.752;2022-08-21T02:10:17;21.43;;;16.63;;
815;SDS011;25928;51.062;13.752;2022-08-21T02:12:45;19.40;;;17.40;;
815;SDS011;25928;51.062;13.752;2022-08-21T02:15:11;23.63;;;18.13;;
815;SDS011;25928;51.062;13.752;2022-08-21T02:17:40;19.90;;;16.30;;
815;SDS011;25928;51.062;13.752;2022-08-21T02:20:09;21.83;;;19.13;;
815;SDS011;25928;51.062;13.752;2022-08-21T02:22:36;20.00;;;17.10;;
815;SDS011;25928;51.062;13.752;2022-08-21T02:25:01;19.70;;;17.60;;
815;SDS011;25928;51.062;13.752;2022-08-21T02:27:28;19.53;;;17.50;;
815;SDS011;25928;51.062;13.752;2022-08-21T02:29:54;18.63;;;16.67;;
815;SDS011;25928;51.062;13.752;2022-08-21T02:32:21;18.43;;;16.23;;
815;SDS011;25928;51.062;13.752;2022-08-21T02:34:47;17.70;;;15.80;;
815;SDS011;25928;51.062;13.752;2022-08-21T02:37:13;19.13;;;15.60;;
815;SDS011;25928;51.062;13.752;2022-08-21T02:39:39;15.77;;;14.17;;
815;SDS011;25928;51.062;13.752;2022-08-21T02:42:04;16.97;;;15.23;;
815;SDS011;25928;51.062;13.752;2022-08-21T02:44:30;17.10;;;15.07;;
815;SDS011;25928;51.062;13.752;2022-08-21T02:46:56;17.70;;;14.73;;
815;SDS011;25928;51.062;13.752;2022-08-21T02:49:21;16.63;;;14.90;;
815;SDS011;25928;51.062;13.752;2022-08-21T02:51:47;16.40;;;14.70;;
815;SDS011;25928;51.062;13.752;2022-08-21T02:54:12;15.77;;;14.27;;
815;SDS011;25928;51.062;13.752;2022-08-21T02:56:38;16.60;;;14.97;;
815;SDS011;25928;51.062;13.752;2022-08-21T02:59:03;16.70;;;15.00;;
815;SDS011;25928;51.062;13.752;2022-08-21T03:01:29;17.67;;;15.80;;
815;SDS011;25928;51.062;13.752;2022-08-21T03:03:54;16.23;;;14.67;;
815;SDS011;25928;51.062;13.752;2022-08-21T03:06:21;16.73;;;15.00;;
815;SDS011;25928;51.062;13.752;2022-08-21T03:08:47;17.60;;;15.80;;
815;SDS011;25928;51.062;13.752;2022-08-21T03:11:13;16.90;;;15.10;;
815;SDS011;25928;51.062;13.752;2022-08-21T03:13:40;15.23;;;13.70;;
815;SDS011;25928;51.062;13.752;2022-08-21T03:16:06;17.50;;;15.60;;
815;SDS011;25928;51.062;13.752;2022-08-21T03:18:32;17.20;;;15.50;;
815;SDS011;25928;51.062;13.752;2022-08-21T03:20:58;17.40;;;15.70;;
815;SDS011;25928;51.062;13.752;2022-08-21T03:23:24;16.90;;;15.20;;
815;SDS011;25928;51.062;13.752;2022-08-21T03:25:49;18.33;;;16.37;;
815;SDS011;25928;51.062;13.752;2022-08-21T03:28:16;17.70;;;15.80;;
815;SDS011;25928;51.062;13.752;2022-08-21T03:30:44;17.83;;;16.13;;
815;SDS011;25928;51.062;13.752;2022-08-21T03:33:13;17.07;;;15.30;;
815;SDS011;25928;51.062;13.752;2022-08-21T03:35:39;17.60;;;15.80;;
815;SDS011;25928;51.062;13.752;2022-08-21T03:38:06;16.87;;;15.07;;
815;SDS011;25928;51.062;13.752;2022-08-21T03:40:32;19.43;;;17.43;;
815;SDS011;25928;51.062;13.752;2022-08-21T03:42:58;20.27;;;17.33;;
815;SDS011;25928;51.062;13.752;2022-08-21T03:45:24;21.53;;;17.93;;
815;SDS011;25928;51.062;13.752;2022-08-21T03:47:51;21.83;;;19.50;;
815;SDS011;25928;51.062;13.752;2022-08-21T03:50:26;23.90;;;19.50;;
815;SDS011;25928;51.062;13.752;2022-08-21T03:52:55;25.73;;;20.10;;
815;SDS011;25928;51.062;13.752;2022-08-21T03:55:21;23.07;;;20.37;;
815;SDS011;25928;51.062;13.752;2022-08-21T03:57:47;23.03;;;19.87;;
815;SDS011;25928;51.062;13.752;2022-08-21T04:00:13;22.13;;;19.73;;
815;SDS011;25928;51.062;13.752;2022-08-21T04:02:40;22.30;;;19.97;;
815;SDS011;25928;51.062;13.752;2022-08-21T04:05:07;26.23;;;21.73;;
815;SDS011;25928;51.062;13.752;2022-08-21T04:07:33;24.07;;;20.83;;
815;SDS011;25928;51.062;13.752;2022-08-21T04:10:00;23.00;;;20.10;;
815;SDS011;25928;51.062;13.752;2022-08-21T04:12:25;25.60;;;21.63;;
815;SDS011;25928;51.062;13.752;2022-08-21T04:14:51;21.20;;;18.77;;
815;SDS011;25928;51.062;13.752;2022-08-21T04:17:17;24.67;;;19.50;;
815;SDS011;25928;51.062;13.752;2022-08-21T04:19:43;23.70;;;21.20;;
815;SDS011;25928;51.062;13.752;2022-08-21T04:22:09;27.13;;;24.10;;
815;SDS011;25928;51.062;13.752;2022-08-21T04:24:34;22.90;;;20.47;;
815;SDS011;25928;51.062;13.752;2022-08-21T04:27:00;20.87;;;18.60;;
815;SDS011;25928;51.062;13.752;2022-08-21T04:29:26;19.27;;;17.27;;
815;SDS011;25928;51.062;13.752;2022-08-21T04:31:51;21.63;;;18.50;;
815;SDS011;25928;51.062;13.752;2022-08-21T04:34:17;20.00;;;18.00;;
815;SDS011;25928;51.062;13.752;2022-08-21T04:36:43;19.63;;;17.70;;
815;SDS011;25928;51.062;13.752;2022-08-21T04:39:09;17.20;;;15.50;;
815;SDS011;25928;51.062;13.752;2022-08-21T04:41:35;17.97;;;16.07;;
815;SDS011;25928;51.062;13.752;2022-08-21T04:44:01;17.90;;;16.10;;
815;SDS011;25928;51.062;13.752;2022-08-21T04:46:27;18.40;;;16.60;;
815;SDS011;25928;51.062;13.752;2022-08-21T04:48:54;18.67;;;16.77;;
815;SDS011;25928;51.062;13.752;2022-08-21T04:51:24;18.67;;;16.87;;
815;SDS011;25928;51.062;13.752;2022-08-21T04:53:55;18.37;;;16.43;;
815;SDS011;25928;51.062;13.752;2022-08-21T04:56:23;17.73;;;16.03;;
815;SDS011;25928;51.062;13.752;2022-08-21T04:58:53;17.77;;;16.00;;
815;SDS011;25928;51.062;13.752;2022-08-21T05:01:23;16.10;;;14.60;;
815;SDS011;25928;51.062;13.752;2022-08-21T05:03:52;15.13;;;13.67;;
815;SDS011;25928;51.062;13.752;2022-08-21T05:06:21;17.47;;;15.73;;
815;SDS011;25928;51.062;13.752;2022-08-21T05:08:49;16.10;;;14.60;;
815;SDS011;25928;51.062;13.752;2022-08-21T05:11:17;14.40;;;12.60;;
815;SDS011;25928;51.062;13.752;2022-08-21T05:13:43;16.37;;;14.77;;
815;SDS011;25928;51.062;13.752;2022-08-21T05:16:08;16.33;;;14.80;;
815;SDS011;25928;51.062;13.752;2022-08-21T05:18:34;15.17;;;13.57;;
815;SDS011;25928;51.062;13.752;2022-08-21T05:21:00;15.17;;;13.70;;
815;SDS011;25928;51.062;13.752;2022-08-21T05:23:25;14.00;;;12.63;;
815;SDS011;25928;51.062;13.752;2022-08-21T05:25:52;14.47;;;12.73;;
815;SDS011;25928;51.062;13.752;2022-08-21T05:28:18;14.50;;;13.20;;
815;SDS011;25928;51.062;13.752;2022-08-21T05:30:44;12.87;;;11.60;;
815;SDS011;25928;51.062;13.752;2022-08-21T05:33:10;14.47;;;12.97;;
815;SDS011;25928;51.062;13.752;2022-08-21T05:35:36;15.70;;;13.17;;
815;SDS011;25928;51.062;13.752;2022-08-21T05:38:02;14.57;;;13.17;;
815;SDS011;25928;51.062;13.752;2022-08-21T05:40:29;16.03;;;14.50;;
815;SDS011;25928;51.062;13.752;2022-08-21T05:42:56;14.77;;;13.37;;
815;SDS011;25928;51.062;13.752;2022-08-21T05:45:23;17.50;;;15.80;;
815;SDS011;25928;51.062;13.752;2022-08-21T05:47:51;17.70;;;16.00;;
815;SDS011;25928;51.062;13.752;2022-08-21T05:50:16;17.30;;;15.70;;
815;SDS011;25928;51.062;13.752;2022-08-21T05:52:42;17.87;;;16.17;;
815;SDS011;25928;51.062;13.752;2022-08-21T05:55:07;21.30;;;19.00;;
815;SDS011;25928;51.062;13.752;2022-08-21T05:57:33;20.70;;;18.50;;
815;SDS011;25928;51.062;13.752;2022-08-21T05:59:59;21.43;;;19.23;;
815;SDS011;25928;51.062;13.752;2022-08-21T06:02:24;21.53;;;19.23;;
815;SDS011;25928;51.062;13.752;2022-08-21T06:04:50;21.93;;;19.83;;
815;SDS011;25928;51.062;13.752;2022-08-21T06:07:15;24.80;;;22.30;;
815;SDS011;25928;51.062;13.752;2022-08-21T06:09:41;23.60;;;21.17;;
815;SDS011;25928;51.062;13.752;2022-08-21T06:12:07;24.30;;;21.80;;
815;SDS011;25928;51.062;13.752;2022-08-21T06:14:35;26.80;;;23.97;;
815;SDS011;25928;51.062;13.752;2022-08-21T06:17:06;25.83;;;23.10;;
815;SDS011;25928;51.062;13.752;2022-08-21T06:19:34;25.30;;;22.70;;
815;SDS011;25928;51.062;13.752;2022-08-21T06:22:01;25.80;;;23.30;;
815;SDS011;25928;51.062;13.752;2022-08-21T06:24:27;26.00;;;23.30;;
815;SDS011;25928;51.062;13.752;2022-08-21T06:26:53;27.47;;;24.60;;
815;SDS011;25928;51.062;13.752;2022-08-21T06:29:19;28.00;;;24.00;;
815;SDS011;25928;51.062;13.752;2022-08-21T06:31:46;26.43;;;23.77;;
815;SDS011;25928;51.062;13.752;2022-08-21T06:34:13;25.17;;;22.60;;
815;SDS011;25928;51.062;13.752;2022-08-21T06:36:39;25.20;;;22.73;;
815;SDS011;25928;51.062;13.752;2022-08-21T06:39:04;26.30;;;23.60;;
815;SDS011;25928;51.062;13.752;2022-08-21T06:41:30;28.70;;;24.10;;
815;SDS011;25928;51.062;13.752;2022-08-21T06:43:56;25.33;;;22.80;;
815;SDS011;25928;51.062;13.752;2022-08-21T06:46:23;26.73;;;22.47;;
815;SDS011;25928;51.062;13.752;2022-08-21T06:48:50;23.40;;;21.10;;
815;SDS011;25928;51.062;13.752;2022-08-21T06:51:16;23.20;;;20.80;;
815;SDS011;25928;51.062;13.752;2022-08-21T06:53:42;23.53;;;20.80;;
815;SDS011;25928;51.062;13.752;2022-08-21T06:56:08;24.23;;;21.70;;
815;SDS011;25928;51.062;13.752;2022-08-21T06:58:33;23.43;;;21.13;;
815;SDS011;25928;51.062;13.752;2022-08-21T07:00:59;23.33;;;20.83;;
815;SDS011;25928;51.062;13.752;2022-08-21T07:03:29;22.60;;;20.23;;
815;SDS011;25928;51.062;13.752;2022-08-21T07:06:00;23.03;;;20.73;;
815;SDS011;25928;51.062;13.752;2022-08-21T07:08:26;22.50;;;20.27;;
815;SDS011;25928;51.062;13.752;2022-08-21T07:10:53;20.80;;;19.00;;
815;SDS011;25928;51.062;13.752;2022-08-21T07:13:21;22.17;;;20.00;;
815;SDS011;25928;51.062;13.752;2022-08-21T07:15:47;20.97;;;18.97;;
815;SDS011;25928;51.062;13.752;2022-08-21T07:18:13;22.03;;;19.83;;
815;SDS011;25928;51.062;13.752;2022-08-21T07:20:39;21.13;;;19.13;;
815;SDS011;25928;51.062;13.752;2022-08-21T07:23:10;20.50;;;18.53;;
815;SDS011;25928;51.062;13.752;2022-08-21T07:25:41;22.30;;;20.10;;
815;SDS011;25928;51.062;13.752;2022-08-21T07:28:06;23.50;;;20.50;;
815;SDS011;25928;51.062;13.752;2022-08-21T07:30:32;21.57;;;19.50;;
815;SDS011;25928;51.062;13.752;2022-08-21T07:32:58;19.60;;;17.77;;
815;SDS011;25928;51.062;13.752;2022-08-21T07:35:24;21.90;;;19.80;;
815;SDS011;25928;51.062;13.752;2022-08-21T07:37:50;19.70;;;17.90;;
815;SDS011;25928;51.062;13.752;2022-08-21T07:40:15;19.20;;;17.50;;
815;SDS011;25928;51.062;13.752;2022-08-21T07:42:47;20.23;;;18.33;;
815;SDS011;25928;51.062;13.752;2022-08-21T07:45:16;20.10;;;18.30;;
815;SDS011;25928;51.062;13.752;2022-08-21T07:47:44;20.43;;;18.63;;
815;SDS011;25928;51.062;13.752;2022-08-21T07:50:10;19.20;;;17.50;;
815;SDS011;25928;51.062;13.752;2022-08-21T07:52:37;19.60;;;17.67;;
815;SDS011;25928;51.062;13.752;2022-08-21T07:55:04;18.50;;;16.83;;
815;SDS011;25928;51.062;13.752;2022-08-21T07:57:33;18.73;;;17.00;;
815;SDS011;25928;51.062;13.752;2022-08-21T07:59:58;17.87;;;16.17;;
815;SDS011;25928;51.062;13.752;2022-08-21T08:02:25;19.30;;;17.50;;
815;SDS011;25928;51.062;13.752;2022-08-21T08:04:52;19.27;;;17.57;;
815;SDS011;25928;51.062;13.752;2022-08-21T08:07:18;17.73;;;16.20;;
815;SDS011;25928;51.062;13.752;2022-08-21T08:09:44;19.40;;;17.70;;
815;SDS011;25928;51.062;13.752;2022-08-21T08:12:09;19.23;;;17.50;;
815;SDS011;25928;51.062;13.752;2022-08-21T08:14:35;17.73;;;16.17;;
815;SDS011;25928;51.062;13.752;2022-08-21T08:17:01;17.50;;;16.00;;
815;SDS011;25928;51.062;13.752;2022-08-21T08:19:27;17.90;;;16.00;;
815;SDS011;25928;51.062;13.752;2022-08-21T08:21:54;17.97;;;16.27;;
815;SDS011;25928;51.062;13.752;2022-08-21T08:24:19;17.50;;;15.87;;
815;SDS011;25928;51.062;13.752;2022-08-21T08:26:45;18.03;;;16.33;;
815;SDS011;25928;51.062;13.752;2022-08-21T08:29:11;17.40;;;15.90;;
815;SDS011;25928;51.062;13.752;2022-08-21T08:31:37;17.47;;;15.80;;
815;SDS011;25928;51.062;13.752;2022-08-21T08:34:03;20.40;;;18.27;;
815;SDS011;25928;51.062;13.752;2022-08-21T08:36:33;17.10;;;15.67;;
815;SDS011;25928;51.062;13.752;2022-08-21T08:39:01;17.10;;;15.60;;
815;SDS011;25928;51.062;13.752;2022-08-21T08:41:28;16.77;;;15.23;;
815;SDS011;25928;51.062;13.752;2022-08-21T08:43:58;15.80;;;14.40;;
815;SDS011;25928;51.062;13.752;2022-08-21T08:46:30;17.17;;;14.77;;
815;SDS011;25928;51.062;13.752;2022-08-21T08:49:05;15.80;;;14.30;;
815;SDS011;25928;51.062;13.752;2022-08-21T08:54:08;16.87;;;15.30;;
815;SDS011;25928;51.062;13.752;2022-08-21T08:56:37;14.43;;;13.10;;
815;SDS011;25928;51.062;13.752;2022-08-21T09:02:13;15.17;;;13.63;;
815;SDS011;25928;51.062;13.752;2022-08-21T09:04:39;13.10;;;12.03;;
815;SDS011;25928;51.062;13.752;2022-08-21T09:07:16;13.03;;;11.93;;
815;SDS011;25928;51.062;13.752;2022-08-21T09:10:03;14.33;;;13.13;;
815;SDS011;25928;51.062;13.752;2022-08-21T09:15:20;11.90;;;10.63;;
815;SDS011;25928;51.062;13.752;2022-08-21T09:21:01;12.07;;;9.93;;
815;SDS011;25928;51.062;13.752;2022-08-21T09:26:22;11.77;;;10.77;;
815;SDS011;25928;51.062;13.752;2022-08-21T09:28:54;10.60;;;9.60;;
815;SDS011;25928;51.062;13.752;2022-08-21T09:31:30;13.03;;;9.50;;
815;SDS011;25928;51.062;13.752;2022-08-21T09:34:02;10.60;;;9.70;;
815;SDS011;25928;51.062;13.752;2022-08-21T09:36:35;10.57;;;9.57;;
815;SDS011;25928;51.062;13.752;2022-08-21T09:39:04;11.50;;;8.77;;
815;SDS011;25928;51.062;13.752;2022-08-21T09:41:31;9.13;;;8.23;;
815;SDS011;25928;51.062;13.752;2022-08-21T09:44:00;9.03;;;8.20;;
815;SDS011;25928;51.062;13.752;2022-08-21T09:46:27;9.70;;;8.70;;
815;SDS011;25928;51.062;13.752;2022-08-21T09:48:54;9.77;;;6.90;;
815;SDS011;25928;51.062;13.752;2022-08-21T09:56:33;12.60;;;6.87;;
815;SDS011;25928;51.062;13.752;2022-08-21T09:59:31;5.47;;;4.90;;
815;SDS011;25928;51.062;13.752;2022-08-21T10:01:58;5.53;;;4.83;;
815;SDS011;25928;51.062;13.752;2022-08-21T10:04:34;5.80;;;4.77;;
815;SDS011;25928;51.062;13.752;2022-08-21T10:07:13;7.33;;;4.63;;
815;SDS011;25928;51.062;13.752;2022-08-21T10:09:39;7.67;;;5.03;;
815;SDS011;25928;51.062;13.752;2022-08-21T10:12:10;5.73;;;4.57;;
815;SDS011;25928;51.062;13.752;2022-08-21T10:14:56;5.13;;;4.70;;
815;SDS011;25928;51.062;13.752;2022-08-21T10:17:47;5.60;;;4.00;;
815;SDS011;25928;51.062;13.752;2022-08-21T10:20:45;4.90;;;4.17;;
815;SDS011;25928;51.062;13.752;2022-08-21T10:28:47;4.17;;;3.67;;
815;SDS011;25928;51.062;13.752;2022-08-21T10:34:16;6.13;;;4.07;;
815;SDS011;25928;51.062;13.752;2022-08-21T10:39:36;3.93;;;3.60;;
815;SDS011;25928;51.062;13.752;2022-08-21T10:45:05;5.03;;;4.30;;
815;SDS011;25928;51.062;13.752;2022-08-21T10:47:42;4.60;;;3.63;;
815;SDS011;25928;51.062;13.752;2022-08-21T10:55:51;5.60;;;3.10;;
815;SDS011;25928;51.062;13.752;2022-08-21T10:58:31;3.73;;;3.43;;
815;SDS011;25928;51.062;13.752;2022-08-21T11:01:12;6.70;;;3.30;;
815;SDS011;25928;51.062;13.752;2022-08-21T11:03:44;6.67;;;4.30;;
815;SDS011;25928;51.062;13.752;2022-08-21T11:06:27;4.43;;;3.97;;
815;SDS011;25928;51.062;13.752;2022-08-21T11:09:11;5.07;;;4.00;;
815;SDS011;25928;51.062;13.752;2022-08-21T11:11:44;7.83;;;3.47;;
815;SDS011;25928;51.062;13.752;2022-08-21T11:14:34;4.87;;;3.60;;
815;SDS011;25928;51.062;13.752;2022-08-21T11:17:22;5.40;;;3.30;;
815;SDS011;25928;51.062;13.752;2022-08-21T11:20:03;7.43;;;4.03;;
815;SDS011;25928;51.062;13.752;2022-08-21T11:22:46;8.20;;;3.90;;
815;SDS011;25928;51.062;13.752;2022-08-21T11:25:21;6.77;;;4.30;;
815;SDS011;25928;51.062;13.752;2022-08-21T11:28:02;4.20;;;3.30;;
815;SDS011;25928;51.062;13.752;2022-08-21T11:30:40;6.37;;;3.60;;
815;SDS011;25928;51.062;13.752;2022-08-21T11:33:42;5.53;;;3.07;;
815;SDS011;25928;51.062;13.752;2022-08-21T11:36:14;5.30;;;3.37;;
815;SDS011;25928;51.062;13.752;2022-08-21T11:38:50;3.80;;;3.30;;
815;SDS011;25928;51.062;13.752;2022-08-21T11:41:39;5.53;;;2.83;;
815;SDS011;25928;51.062;13.752;2022-08-21T11:44:30;3.00;;;2.70;;
815;SDS011;25928;51.062;13.752;2022-08-21T11:52:25;3.90;;;3.23;;
815;SDS011;25928;51.062;13.752;2022-08-21T12:02:48;3.83;;;2.10;;
815;SDS011;25928;51.062;13.752;2022-08-21T12:05:36;3.57;;;2.23;;
815;SDS011;25928;51.062;13.752;2022-08-21T12:11:02;10.10;;;2.33;;
815;SDS011;25928;51.062;13.752;2022-08-21T12:16:34;2.63;;;2.10;;
815;SDS011;25928;51.062;13.752;2022-08-21T12:24:40;6.50;;;2.43;;
815;SDS011;25928;51.062;13.752;2022-08-21T12:27:14;3.47;;;2.27;;
815;SDS011;25928;51.062;13.752;2022-08-21T12:30:05;6.37;;;2.23;;
815;SDS011;25928;51.062;13.752;2022-08-21T12:32:45;6.60;;;1.93;;
815;SDS011;25928;51.062;13.752;2022-08-21T12:35:21;4.43;;;1.90;;
815;SDS011;25928;51.062;13.752;2022-08-21T12:37:58;5.67;;;2.07;;
815;SDS011;25928;51.062;13.752;2022-08-21T12:40:31;3.63;;;2.20;;
815;SDS011;25928;51.062;13.752;2022-08-21T12:43:06;4.20;;;2.10;;
815;SDS011;25928;51.062;13.752;2022-08-21T12:45:44;4.50;;;2.30;;
815;SDS011;25928;51.062;13.752;2022-08-21T12:50:50;5.87;;;2.70;;
815;SDS011;25928;51.062;13.752;2022-08-21T12:55:53;4.20;;;1.77;;
815;SDS011;25928;51.062;13.752;2022-08-21T12:58:24;3.10;;;1.97;;
815;SDS011;25928;51.062;13.752;2022-08-21T13:00:52;5.77;;;2.30;;
815;SDS011;25928;51.062;13.752;2022-08-21T13:03:21;6.53;;;2.23;;
815;SDS011;25928;51.062;13.752;2022-08-21T13:05:48;3.43;;;2.00;;
815;SDS011;25928;51.062;13.752;2022-08-21T13:08:18;4.80;;;2.33;;
815;SDS011;25928;51.062;13.752;2022-08-21T13:10:45;3.60;;;1.90;;
815;SDS011;25928;51.062;13.752;2022-08-21T13:13:17;3.70;;;2.00;;
815;SDS011;25928;51.062;13.752;2022-08-21T13:15:46;3.57;;;2.53;;
815;SDS011;25928;51.062;13.752;2022-08-21T13:18:22;3.00;;;2.33;;
815;SDS011;25928;51.062;13.752;2022-08-21T13:20:50;3.53;;;2.07;;
815;SDS011;25928;51.062;13.752;2022-08-21T13:25:51;5.80;;;2.60;;
815;SDS011;25928;51.062;13.752;2022-08-21T13:28:17;3.53;;;2.43;;
815;SDS011;25928;51.062;13.752;2022-08-21T13:30:46;5.27;;;3.10;;
815;SDS011;25928;51.062;13.752;2022-08-21T13:33:15;4.30;;;2.43;;
815;SDS011;25928;51.062;13.752;2022-08-21T13:38:28;3.90;;;2.40;;
815;SDS011;25928;51.062;13.752;2022-08-21T13:41:01;5.07;;;2.50;;
815;SDS011;25928;51.062;13.752;2022-08-21T13:43:35;5.33;;;2.43;;
815;SDS011;25928;51.062;13.752;2022-08-21T13:46:02;3.27;;;2.50;;
815;SDS011;25928;51.062;13.752;2022-08-21T13:48:34;4.57;;;2.40;;
815;SDS011;25928;51.062;13.752;2022-08-21T13:51:00;4.40;;;2.13;;
815;SDS011;25928;51.062;13.752;2022-08-21T13:53:34;4.47;;;2.23;;
815;SDS011;25928;51.062;13.752;2022-08-21T13:56:05;6.23;;;2.30;;
815;SDS011;25928;51.062;13.752;2022-08-21T14:01:18;5.27;;;2.50;;
815;SDS011;25928;51.062;13.752;2022-08-21T14:03:53;5.53;;;2.87;;
815;SDS011;25928;51.062;13.752;2022-08-21T14:06:26;3.50;;;2.43;;
815;SDS011;25928;51.062;13.752;2022-08-21T14:08:58;4.10;;;2.10;;
815;SDS011;25928;51.062;13.752;2022-08-21T14:11:27;3.77;;;2.20;;
815;SDS011;25928;51.062;13.752;2022-08-21T14:13:59;5.23;;;2.40;;
815;SDS011;25928;51.062;13.752;2022-08-21T14:16:29;4.13;;;2.37;;
815;SDS011;25928;51.062;13.752;2022-08-21T14:19:09;4.77;;;2.40;;
815;SDS011;25928;51.062;13.752;2022-08-21T14:21:41;4.13;;;2.30;;
815;SDS011;25928;51.062;13.752;2022-08-21T14:24:12;7.60;;;2.50;;
815;SDS011;25928;51.062;13.752;2022-08-21T14:27:02;3.10;;;2.80;;
815;SDS011;25928;51.062;13.752;2022-08-21T14:29:33;5.47;;;2.20;;
815;SDS011;25928;51.062;13.752;2022-08-21T14:32:08;3.23;;;2.33;;
815;SDS011;25928;51.062;13.752;2022-08-21T14:34:39;3.87;;;2.30;;
815;SDS011;25928;51.062;13.752;2022-08-21T14:37:04;2.83;;;2.00;;
815;SDS011;25928;51.062;13.752;2022-08-21T14:39:30;4.20;;;2.03;;
815;SDS011;25928;51.062;13.752;2022-08-21T14:41:56;3.60;;;2.00;;
815;SDS011;25928;51.062;13.752;2022-08-21T14:44:23;5.70;;;2.10;;
815;SDS011;25928;51.062;13.752;2022-08-21T14:46:49;5.83;;;2.57;;
815;SDS011;25928;51.062;13.752;2022-08-21T14:49:14;2.80;;;2.10;;
815;SDS011;25928;51.062;13.752;2022-08-21T14:51:40;3.70;;;2.10;;
815;SDS011;25928;51.062;13.752;2022-08-21T14:54:06;2.60;;;2.10;;
815;SDS011;25928;51.062;13.752;2022-08-21T14:56:37;3.43;;;1.77;;
815;SDS011;25928;51.062;13.752;2022-08-21T14:59:04;4.70;;;1.70;;
815;SDS011;25928;51.062;13.752;2022-08-21T15:01:34;5.17;;;2.00;;
815;SDS011;25928;51.062;13.752;2022-08-21T15:04:02;4.10;;;1.73;;
815;SDS011;25928;51.062;13.752;2022-08-21T15:06:28;7.50;;;2.27;;
815;SDS011;25928;51.062;13.752;2022-08-21T15:08:53;5.67;;;1.90;;
815;SDS011;25928;51.062;13.752;2022-08-21T15:11:20;3.70;;;2.10;;
815;SDS011;25928;51.062;13.752;2022-08-21T15:13:50;3.67;;;2.10;;
815;SDS011;25928;51.062;13.752;2022-08-21T15:16:21;6.20;;;2.13;;
815;SDS011;25928;51.062;13.752;2022-08-21T15:18:47;2.10;;;1.80;;
815;SDS011;25928;51.062;13.752;2022-08-21T15:21:13;2.50;;;1.83;;
815;SDS011;25928;51.062;13.752;2022-08-21T15:23:38;3.50;;;1.90;;
815;SDS011;25928;51.062;13.752;2022-08-21T15:26:04;3.00;;;2.13;;
815;SDS011;25928;51.062;13.752;2022-08-21T15:28:30;5.70;;;2.10;;
815;SDS011;25928;51.062;13.752;2022-08-21T15:30:56;4.77;;;1.83;;
815;SDS011;25928;51.062;13.752;2022-08-21T15:33:21;2.50;;;1.83;;
815;SDS011;25928;51.062;13.752;2022-08-21T15:35:47;4.00;;;2.03;;
815;SDS011;25928;51.062;13.752;2022-08-21T15:38:13;9.03;;;1.87;;
815;SDS011;25928;51.062;13.752;2022-08-21T15:40:40;2.30;;;1.60;;
815;SDS011;25928;51.062;13.752;2022-08-21T15:43:07;3.23;;;1.77;;
815;SDS011;25928;51.062;13.752;2022-08-21T15:45:43;3.53;;;1.80;;
815;SDS011;25928;51.062;13.752;2022-08-21T15:48:11;2.30;;;1.90;;
815;SDS011;25928;51.062;13.752;2022-08-21T15:50:37;2.87;;;1.77;;
815;SDS011;25928;51.062;13.752;2022-08-21T15:53:02;5.93;;;2.30;;
815;SDS011;25928;51.062;13.752;2022-08-21T15:55:28;4.60;;;1.70;;
815;SDS011;25928;51.062;13.752;2022-08-21T15:57:54;2.77;;;1.97;;
815;SDS011;25928;51.062;13.752;2022-08-21T16:00:21;2.80;;;1.80;;
815;SDS011;25928;51.062;13.752;2022-08-21T16:02:49;3.20;;;1.87;;
815;SDS011;25928;51.062;13.752;2022-08-21T16:05:18;6.20;;;2.40;;
815;SDS011;25928;51.062;13.752;2022-08-21T16:07:45;4.43;;;1.53;;
815;SDS011;25928;51.062;13.752;2022-08-21T16:10:12;2.63;;;2.37;;
815;SDS011;25928;51.062;13.752;2022-08-21T16:12:43;3.90;;;1.77;;
815;SDS011;25928;51.062;13.752;2022-08-21T16:15:15;4.90;;;1.50;;
815;SDS011;25928;51.062;13.752;2022-08-21T16:17:43;3.20;;;1.73;;
815;SDS011;25928;51.062;13.752;2022-08-21T16:20:13;2.70;;;1.90;;
815;SDS011;25928;51.062;13.752;2022-08-21T16:22:41;3.67;;;2.13;;
815;SDS011;25928;51.062;13.752;2022-08-21T16:25:07;5.70;;;2.03;;